Time;durP1;ratioP1;P1;durP2;ratioP2;P2;SDS_P1;SDS_P2;PMS_P1;PMS_P2;Temp;Humidity;BMP_temperature;BMP_pressure;BME280_temperature;BME280_humidity;BME280_pressure;Samples;Min_cycle;Max_cycle;Signal;HPM_P1;HPM_P2
2022/12/04 00:01:59;;;;;;;80.25;27.60;;;3.20;99.90;;;;;;5008168;28;20084;-74
2022/12/04 00:04:25;;;;;;;77.20;27.38;;;3.20;99.90;;;;;;5008846;28;20022;-72
2022/12/04 00:06:53;;;;;;;80.40;28.77;;;3.20;99.90;;;;;;5008011;28;20026;-72
2022/12/04 00:09:23;;;;;;;79.18;28.20;;;3.20;99.90;;;;;;5022395;28;20036;-72
2022/12/04 00:11:49;;;;;;;81.38;27.88;;;3.20;99.90;;;;;;5009462;28;20072;-70
2022/12/04 00:14:15;;;;;;;80.53;27.17;;;3.20;99.90;;;;;;5010083;28;20053;-72
2022/12/04 00:16:40;;;;;;;74.63;26.13;;;3.10;99.90;;;;;;5010022;28;20095;-72
2022/12/04 00:19:06;;;;;;;75.82;27.17;;;3.20;99.90;;;;;;5009662;28;20033;-70
2022/12/04 00:21:32;;;;;;;78.47;28.17;;;3.20;99.90;;;;;;5014244;28;20037;-72
2022/12/04 00:23:57;;;;;;;70.57;26.90;;;3.20;99.90;;;;;;5011423;28;20570;-71
2022/12/04 00:26:25;;;;;;;78.72;28.58;;;3.20;99.90;;;;;;5011553;28;20026;-72
2022/12/04 00:28:52;;;;;;;73.38;28.40;;;3.20;99.90;;;;;;5010616;28;20041;-74
2022/12/04 00:31:23;;;;;;;72.32;26.48;;;3.20;99.90;;;;;;5007837;28;20032;-73
2022/12/04 00:33:49;;;;;;;77.30;28.77;;;3.30;99.90;;;;;;5009518;28;20093;-72
2022/12/04 00:36:20;;;;;;;72.57;26.48;;;3.20;99.90;;;;;;5020328;28;20055;-71
2022/12/04 00:38:46;;;;;;;79.57;27.60;;;3.20;99.90;;;;;;5012234;28;20060;-69
2022/12/04 00:41:16;;;;;;;76.15;28.60;;;3.20;99.90;;;;;;5009481;28;20470;-71
2022/12/04 00:43:42;;;;;;;73.95;26.88;;;3.20;99.90;;;;;;5009330;28;20042;-74
2022/12/04 00:46:08;;;;;;;76.90;29.67;;;3.20;99.90;;;;;;5007320;28;20045;-71
2022/12/04 00:48:34;;;;;;;75.13;27.17;;;3.20;99.90;;;;;;5020055;28;20685;-72
2022/12/04 00:51:13;;;;;;;74.85;27.75;;;3.20;99.90;;;;;;5005771;28;20033;-71
2022/12/04 00:53:39;;;;;;;74.95;28.60;;;3.20;99.90;;;;;;5008798;28;20030;-72
2022/12/04 00:56:07;;;;;;;76.18;27.30;;;3.20;99.90;;;;;;5007380;28;20056;-71
2022/12/04 00:58:33;;;;;;;81.53;27.88;;;3.20;99.90;;;;;;5017266;28;20447;-72
2022/12/04 01:01:04;;;;;;;73.78;27.10;;;3.30;99.90;;;;;;5007110;28;20073;-71
2022/12/04 01:03:30;;;;;;;81.95;28.25;;;3.30;99.90;;;;;;5007352;28;20587;-70
2022/12/04 01:05:59;;;;;;;72.35;26.92;;;3.30;99.90;;;;;;5008751;28;20515;-71
2022/12/04 01:08:24;;;;;;;77.53;27.65;;;3.30;99.90;;;;;;5008669;28;20026;-70
2022/12/04 01:10:51;;;;;;;79.53;28.67;;;3.30;99.90;;;;;;5012082;28;20030;-71
2022/12/04 01:13:19;;;;;;;76.72;27.60;;;3.30;99.90;;;;;;5013597;28;20405;-72
2022/12/04 01:15:46;;;;;;;70.70;27.15;;;3.30;99.90;;;;;;5008712;28;20030;-72
2022/12/04 01:18:13;;;;;;;79.88;27.27;;;3.30;99.90;;;;;;5009500;28;20069;-70
2022/12/04 01:20:42;;;;;;;76.43;27.20;;;3.30;99.90;;;;;;5008623;28;20029;-71
2022/12/04 01:23:10;;;;;;;78.30;27.90;;;3.30;99.90;;;;;;5007716;28;20028;-72
2022/12/04 01:25:35;;;;;;;80.20;29.02;;;3.30;99.90;;;;;;5008297;28;20425;-70
2022/12/04 01:28:01;;;;;;;74.47;26.88;;;3.40;99.90;;;;;;5007768;28;20026;-71
2022/12/04 01:30:29;;;;;;;73.60;26.67;;;3.40;99.90;;;;;;5007572;28;20033;-72
2022/12/04 01:32:57;;;;;;;77.65;28.38;;;3.30;99.90;;;;;;5020809;28;20026;-72
2022/12/04 01:35:25;;;;;;;77.43;26.95;;;3.30;99.90;;;;;;5005873;28;20045;-73
2022/12/04 01:37:50;;;;;;;75.28;27.13;;;3.30;99.90;;;;;;5007533;28;20029;-69
2022/12/04 01:40:16;;;;;;;73.40;26.52;;;3.30;99.90;;;;;;5006570;28;20033;-71
2022/12/04 01:42:42;;;;;;;71.10;26.73;;;3.30;99.90;;;;;;5010281;28;20022;-72
2022/12/04 01:45:37;;;;;;;74.18;28.58;;;3.40;99.90;;;;;;5011509;28;20411;-70
2022/12/04 01:48:20;;;;;;;76.30;28.15;;;3.40;99.90;;;;;;5011192;28;20065;-72
2022/12/04 01:50:50;;;;;;;73.55;27.77;;;3.50;99.90;;;;;;5011743;28;20025;-72
2022/12/04 01:53:20;;;;;;;71.38;27.80;;;3.40;99.90;;;;;;5025655;28;20029;-72
2022/12/04 01:55:47;;;;;;;77.18;28.42;;;3.50;99.90;;;;;;5011075;28;20447;-71
2022/12/04 01:58:14;;;;;;;76.65;27.45;;;3.40;99.90;;;;;;5025634;28;20033;-72
2022/12/04 02:00:40;;;;;;;77.68;28.00;;;3.30;99.90;;;;;;5008685;28;20022;-71
2022/12/04 02:03:07;;;;;;;74.38;26.27;;;3.30;99.90;;;;;;5011640;28;20044;-72
2022/12/04 02:05:36;;;;;;;82.45;28.98;;;3.30;99.90;;;;;;5010792;28;20450;-73
2022/12/04 02:08:04;;;;;;;75.40;27.05;;;3.30;99.90;;;;;;5013422;28;20041;-71
2022/12/04 02:11:08;;;;;;;70.70;26.85;;;3.30;99.90;;;;;;5009790;28;20062;-72
2022/12/04 02:14:21;;;;;;;79.18;28.65;;;3.30;99.90;;;;;;5023372;28;20046;-72
2022/12/04 02:17:01;;;;;;;77.88;28.23;;;3.30;99.90;;;;;;5008593;28;20677;-72
2022/12/04 02:19:29;;;;;;;70.30;27.25;;;3.20;99.90;;;;;;5013237;28;20054;-72
2022/12/04 02:22:03;;;;;;;71.32;27.63;;;3.20;99.90;;;;;;5010833;28;20109;-72
2022/12/04 02:24:32;;;;;;;76.63;26.75;;;3.20;99.90;;;;;;5011752;28;20117;-72
2022/12/04 02:27:18;;;;;;;78.63;26.75;;;3.20;99.90;;;;;;5010591;28;20033;-72
2022/12/04 02:29:49;;;;;;;76.60;26.38;;;3.20;99.90;;;;;;5010575;28;20030;-72
2022/12/04 02:32:42;;;;;;;79.68;29.38;;;3.30;99.90;;;;;;5011500;28;20026;-72
2022/12/04 02:35:19;;;;;;;70.63;27.15;;;3.30;99.90;;;;;;5010946;28;20490;-72
2022/12/04 02:37:50;;;;;;;79.68;29.23;;;3.20;99.90;;;;;;5011909;28;20030;-73
2022/12/04 02:40:35;;;;;;;76.65;26.40;;;3.20;99.90;;;;;;5012459;28;20025;-75
2022/12/04 02:43:17;;;;;;;79.97;27.52;;;3.20;99.90;;;;;;5014565;28;20032;-72
2022/12/04 02:46:10;;;;;;;75.45;28.17;;;3.20;99.90;;;;;;5017084;28;20018;-72
2022/12/04 02:48:39;;;;;;;;;;;3.20;99.90;;;;;;5017700;28;20034;-72
2022/12/04 02:51:07;;;;;;;72.32;27.17;;;3.20;99.90;;;;;;5017039;28;19906;-72
2022/12/04 02:53:42;;;;;;;71.00;25.67;;;3.30;99.90;;;;;;5031038;28;20034;-72
2022/12/04 02:56:12;;;;;;;86.68;29.05;;;3.30;99.90;;;;;;5019079;28;20129;-69
2022/12/04 02:58:43;;;;;;;74.35;26.55;;;3.30;99.90;;;;;;5020564;28;20100;-72
2022/12/04 03:01:22;;;;;;;73.95;26.27;;;3.30;99.90;;;;;;5016939;28;20108;-71
2022/12/04 03:04:16;;;;;;;81.65;30.17;;;3.30;99.90;;;;;;5017137;28;20018;-73
2022/12/04 03:06:46;;;;;;;74.68;26.75;;;3.30;99.90;;;;;;5016032;28;20345;-73
2022/12/04 03:09:22;;;;;;;80.47;27.58;;;3.30;99.90;;;;;;5016852;28;20108;-72
2022/12/04 03:12:10;;;;;;;74.85;26.88;;;3.40;99.90;;;;;;5016926;28;20049;-73
2022/12/04 03:14:43;;;;;;;78.93;28.02;;;3.40;99.90;;;;;;5016631;28;20037;-71
2022/12/04 03:17:22;;;;;;;93.50;27.52;;;3.40;99.90;;;;;;5016523;28;20048;-72
2022/12/04 03:19:56;;;;;;;71.45;25.73;;;3.30;99.90;;;;;;5015884;28;20440;-71
2022/12/04 03:22:28;;;;;;;77.45;27.98;;;3.30;99.90;;;;;;5016481;28;20040;-72
2022/12/04 03:24:55;;;;;;;;;;;3.30;99.90;;;;;;5016983;28;20026;-72
2022/12/04 03:27:35;;;;;;;72.40;26.17;;;3.30;99.90;;;;;;5016456;28;19953;-72
2022/12/04 03:30:05;;;;;;;86.65;28.70;;;3.30;99.90;;;;;;5016153;28;20049;-72
2022/12/04 03:32:49;;;;;;;79.95;28.92;;;3.30;99.90;;;;;;5015784;28;20054;-72
2022/12/04 03:35:20;;;;;;;75.63;27.13;;;3.30;99.90;;;;;;5015868;28;20041;-73
2022/12/04 03:37:54;;;;;;;73.00;27.83;;;3.30;99.90;;;;;;5015922;28;20346;-72
2022/12/04 03:40:31;;;;;;;72.97;26.33;;;3.30;99.90;;;;;;5031843;28;20034;-70
2022/12/04 03:43:03;;;;;;;76.10;28.63;;;3.20;99.90;;;;;;5015540;28;20473;-73
2022/12/04 03:45:54;;;;;;;75.43;28.13;;;3.30;99.90;;;;;;5015775;28;20087;-69
2022/12/04 03:48:31;;;;;;;69.72;26.23;;;3.30;99.90;;;;;;5016341;28;20041;-74
2022/12/04 03:51:21;;;;;;;67.63;26.33;;;3.30;99.90;;;;;;5019855;28;20035;-77
2022/12/04 03:53:49;;;;;;;66.35;26.67;;;3.30;99.90;;;;;;5024328;28;20421;-78
2022/12/04 03:56:26;;;;;;;71.75;26.30;;;3.30;99.90;;;;;;5017408;28;20026;-75
2022/12/04 03:59:00;;;;;;;76.63;26.50;;;3.30;99.90;;;;;;5019325;28;20072;-72
2022/12/04 04:01:36;;;;;;;68.00;25.80;;;3.30;99.90;;;;;;5018025;28;20018;-73
2022/12/04 04:04:06;;;;;;;68.70;26.02;;;3.30;99.90;;;;;;5022042;28;20094;-74
2022/12/04 04:06:40;;;;;;;72.35;26.65;;;3.40;99.90;;;;;;5018432;28;20105;-72
2022/12/04 04:09:13;;;;;;;70.88;25.88;;;3.40;99.90;;;;;;5016621;28;20137;-75
2022/12/04 04:11:44;;;;;;;;;;;3.40;99.90;;;;;;5016892;28;20025;-71
2022/12/04 04:25:37;;;;;;;64.45;25.58;;;3.30;99.90;;;;;;5015261;28;20084;-72
2022/12/04 04:28:03;;;;;;;65.10;26.20;;;3.30;99.90;;;;;;5015028;28;20030;-70
2022/12/04 04:30:32;;;;;;;64.20;23.90;;;3.30;99.90;;;;;;5015160;28;20461;-72
2022/12/04 04:33:07;;;;;;;60.28;23.10;;;3.40;99.90;;;;;;5017544;28;20488;-72
2022/12/04 04:35:48;;;;;;;66.00;25.05;;;3.30;99.90;;;;;;5021847;28;20034;-71
2022/12/04 04:38:53;;;;;;;58.60;22.55;;;3.40;99.90;;;;;;5030584;28;20057;-71
2022/12/04 04:41:30;;;;;;;57.58;21.80;;;3.30;99.90;;;;;;5013957;28;20121;-72
2022/12/04 04:44:12;;;;;;;61.65;24.17;;;3.30;99.90;;;;;;5014723;28;20053;-72
2022/12/04 04:46:45;;;;;;;54.92;22.85;;;3.30;99.90;;;;;;5015230;28;20026;-72
2022/12/04 04:49:17;;;;;;;58.80;22.42;;;3.30;99.90;;;;;;5014832;28;20087;-72
2022/12/04 04:51:44;;;;;;;64.15;22.95;;;3.30;99.90;;;;;;5018219;28;20022;-71
2022/12/04 04:54:12;;;;;;;61.75;23.42;;;3.40;99.90;;;;;;5021033;28;20018;-72
2022/12/04 04:56:42;;;;;;;67.25;24.15;;;3.30;99.90;;;;;;5016091;28;20028;-72
2022/12/04 04:59:11;;;;;;;61.85;23.63;;;3.30;99.90;;;;;;5019363;28;20026;-72
2022/12/04 05:01:42;;;;;;;63.22;22.38;;;3.30;99.90;;;;;;5014525;28;20021;-72
2022/12/04 05:04:10;;;;;;;58.83;22.50;;;3.30;99.90;;;;;;5014588;28;20469;-72
2022/12/04 05:06:35;;;;;;;53.50;21.27;;;3.30;99.90;;;;;;5015049;28;20092;-72
2022/12/04 05:09:01;;;;;;;51.15;22.00;;;3.30;99.90;;;;;;5014853;28;20033;-72
2022/12/04 05:11:27;;;;;;;53.90;22.77;;;3.40;99.90;;;;;;5014522;28;20108;-72
2022/12/04 05:13:53;;;;;;;62.88;23.67;;;3.40;99.90;;;;;;5014922;28;20013;-71
2022/12/04 05:16:19;;;;;;;57.00;22.00;;;3.40;99.90;;;;;;5015034;28;20022;-70
2022/12/04 05:19:52;;;;;;;56.75;20.55;;;3.30;99.90;;;;;;5018347;28;20037;-72
2022/12/04 05:21:30;;;;;;;56.60;20.83;;;3.30;99.90;;;;;;5022894;28;20032;-72
2022/12/04 05:23:56;;;;;;;52.40;21.00;;;3.40;99.90;;;;;;5018871;28;20026;-72
2022/12/04 05:26:22;;;;;;;55.65;21.15;;;3.40;99.90;;;;;;5017709;28;20030;-70
2022/12/04 05:28:48;;;;;;;55.05;22.13;;;3.40;99.90;;;;;;5017406;28;20025;-72
2022/12/04 05:31:16;;;;;;;53.55;20.67;;;3.40;99.90;;;;;;5018260;28;20046;-72
2022/12/04 05:33:43;;;;;;;53.15;21.73;;;3.40;99.90;;;;;;5033889;28;20103;-71
2022/12/04 05:36:12;;;;;;;49.92;20.73;;;3.40;99.90;;;;;;5017748;28;20021;-72
2022/12/04 05:38:37;;;;;;;53.15;20.02;;;3.40;99.90;;;;;;5018814;28;20040;-72
2022/12/04 05:41:05;;;;;;;57.10;21.98;;;3.50;99.90;;;;;;5019064;28;20097;-72
2022/12/04 05:43:31;;;;;;;51.10;21.33;;;3.50;99.90;;;;;;5020162;28;20022;-74
2022/12/04 05:46:02;;;;;;;58.90;21.17;;;3.40;99.90;;;;;;5019737;28;20022;-70
2022/12/04 05:48:28;;;;;;;61.08;22.38;;;3.50;99.90;;;;;;5017968;28;20030;-69
2022/12/04 05:50:53;;;;;;;55.28;19.92;;;3.40;99.90;;;;;;5018041;28;20036;-71
2022/12/04 05:53:19;;;;;;;52.78;19.95;;;3.40;99.90;;;;;;5018485;28;20026;-72
2022/12/04 05:55:56;;;;;;;57.13;21.25;;;3.30;99.90;;;;;;5018361;28;20084;-70
2022/12/04 05:58:25;;;;;;;51.83;20.17;;;3.40;99.90;;;;;;5018049;28;20065;-73
2022/12/04 06:00:51;;;;;;;50.15;20.17;;;3.40;99.90;;;;;;5018051;28;20026;-72
2022/12/04 06:03:17;;;;;;;58.00;22.15;;;3.40;99.90;;;;;;5017500;28;20018;-70
2022/12/04 06:05:43;;;;;;;55.10;20.77;;;3.40;99.90;;;;;;5018630;28;20029;-72
2022/12/04 06:08:11;;;;;;;54.17;19.95;;;3.30;99.90;;;;;;5018658;28;20026;-75
2022/12/04 06:10:37;;;;;;;49.85;20.27;;;3.40;99.90;;;;;;5018071;28;20379;-71
2022/12/04 06:13:05;;;;;;;46.20;19.23;;;3.40;99.90;;;;;;5018158;28;20022;-72
2022/12/04 06:15:36;;;;;;;47.45;20.23;;;3.40;99.90;;;;;;5018382;28;20495;-73
2022/12/04 06:18:05;;;;;;;48.40;19.52;;;3.30;99.90;;;;;;5018568;28;20037;-72
2022/12/04 06:20:31;;;;;;;54.45;20.70;;;3.40;99.90;;;;;;5017944;28;20025;-72
2022/12/04 06:22:57;;;;;;;48.75;18.38;;;3.40;99.90;;;;;;5022323;28;20030;-72
2022/12/04 06:25:24;;;;;;;42.17;18.15;;;3.40;99.90;;;;;;5018039;28;20431;-72
2022/12/04 06:27:52;;;;;;;48.28;18.90;;;3.30;99.90;;;;;;5017782;28;20100;-70
2022/12/04 06:30:18;;;;;;;48.47;19.63;;;3.40;99.90;;;;;;5017441;28;20052;-73
2022/12/04 06:32:43;;;;;;;43.92;18.38;;;3.40;99.90;;;;;;5016789;28;20030;-72
2022/12/04 06:35:09;;;;;;;48.97;19.33;;;3.30;99.90;;;;;;5017204;28;20038;-72
2022/12/04 06:37:35;;;;;;;45.35;18.48;;;3.30;99.90;;;;;;5017202;28;20036;-72
2022/12/04 06:40:00;;;;;;;47.72;18.15;;;3.30;99.90;;;;;;5017208;28;20018;-71
2022/12/04 06:42:26;;;;;;;50.28;18.80;;;3.30;99.90;;;;;;5016077;28;20030;-72
2022/12/04 06:44:54;;;;;;;46.85;19.20;;;3.30;99.90;;;;;;5017044;28;20083;-72
2022/12/04 06:47:20;;;;;;;40.13;15.77;;;3.40;99.90;;;;;;5017251;28;20038;-71
2022/12/04 06:49:49;;;;;;;42.92;17.30;;;3.30;99.90;;;;;;5016835;28;20105;-71
2022/12/04 06:52:17;;;;;;;40.63;15.70;;;3.30;99.90;;;;;;5017028;28;20030;-71
2022/12/04 06:54:43;;;;;;;42.92;16.92;;;3.40;99.90;;;;;;5016852;28;20034;-72
2022/12/04 06:57:08;;;;;;;46.67;17.45;;;3.40;99.90;;;;;;5016798;28;20030;-71
2022/12/04 06:59:35;;;;;;;41.80;17.08;;;3.40;99.90;;;;;;5032133;28;20500;-71
2022/12/04 07:02:00;;;;;;;43.42;16.70;;;3.40;99.90;;;;;;5016627;28;20026;-71
2022/12/04 07:04:26;;;;;;;42.00;16.75;;;3.40;99.90;;;;;;5016463;28;20189;-72
2022/12/04 07:06:52;;;;;;;43.70;17.80;;;3.50;99.90;;;;;;5016600;28;20097;-71
2022/12/04 07:09:17;;;;;;;45.10;17.10;;;3.40;99.90;;;;;;5016811;28;20061;-72
2022/12/04 07:11:46;;;;;;;40.35;16.20;;;3.40;99.90;;;;;;5016587;28;20026;-72
2022/12/04 07:14:12;;;;;;;37.80;16.20;;;3.40;99.90;;;;;;5015785;28;20040;-72
2022/12/04 07:16:39;;;;;;;47.65;17.15;;;3.40;99.90;;;;;;5017880;28;20060;-71
2022/12/04 07:19:05;;;;;;;42.22;16.88;;;3.40;99.90;;;;;;5016490;28;20354;-72
2022/12/04 07:21:30;;;;;;;46.40;16.77;;;3.40;99.90;;;;;;5016750;28;20018;-72
2022/12/04 07:23:59;;;;;;;41.70;15.82;;;3.40;99.90;;;;;;5016241;28;20156;-72
2022/12/04 07:26:26;;;;;;;42.97;15.52;;;3.40;99.90;;;;;;5016008;28;20018;-72
2022/12/04 07:28:55;;;;;;;43.00;16.40;;;3.40;99.90;;;;;;5016190;28;20037;-72
2022/12/04 07:31:25;;;;;;;46.70;16.80;;;3.40;99.90;;;;;;5016729;28;20036;-73
2022/12/04 07:33:53;;;;;;;39.20;15.65;;;3.40;99.90;;;;;;5016977;28;20038;-75
2022/12/04 07:36:22;;;;;;;40.22;16.25;;;3.40;99.90;;;;;;5016905;28;20048;-73
2022/12/04 07:38:49;;;;;;;43.42;16.45;;;3.40;99.90;;;;;;5016013;28;20026;-72
2022/12/04 07:41:21;;;;;;;46.17;17.08;;;3.50;99.90;;;;;;5016246;28;20098;-76
2022/12/04 07:43:46;;;;;;;40.65;16.20;;;3.40;99.90;;;;;;5014570;28;20038;-76
2022/12/04 07:46:19;;;;;;;43.85;16.83;;;3.50;99.90;;;;;;5015504;28;20103;-74
2022/12/04 07:48:45;;;;;;;42.47;16.42;;;3.50;99.90;;;;;;5015603;28;20028;-75
2022/12/04 07:51:17;;;;;;;40.05;16.23;;;3.50;99.90;;;;;;5014341;28;20112;-76
2022/12/04 07:53:43;;;;;;;38.28;16.45;;;3.40;99.90;;;;;;5015579;28;20076;-76
2022/12/04 07:56:11;;;;;;;41.90;17.60;;;3.40;99.90;;;;;;5014247;28;20030;-75
2022/12/04 07:58:36;;;;;;;38.15;15.82;;;3.40;99.90;;;;;;5014228;28;20378;-75
2022/12/04 08:01:13;;;;;;;43.80;16.30;;;3.40;99.90;;;;;;5015160;28;20137;-76
2022/12/04 08:03:40;;;;;;;43.42;16.13;;;3.40;99.90;;;;;;5014573;28;20026;-75
2022/12/04 08:06:06;;;;;;;37.50;15.20;;;3.50;99.90;;;;;;5013967;28;20029;-74
2022/12/04 08:08:33;;;;;;;41.75;16.42;;;3.40;99.90;;;;;;5014777;28;20036;-77
2022/12/04 08:10:59;;;;;;;39.20;17.23;;;3.40;99.90;;;;;;5030922;28;20026;-75
2022/12/04 08:13:25;;;;;;;45.05;16.15;;;3.40;99.90;;;;;;5015179;28;20097;-75
2022/12/04 08:15:51;;;;;;;39.08;15.73;;;3.50;99.90;;;;;;5014926;28;20045;-76
2022/12/04 08:18:17;;;;;;;37.05;16.20;;;3.50;99.90;;;;;;5013595;28;20331;-77
2022/12/04 08:20:45;;;;;;;35.35;15.30;;;3.50;99.90;;;;;;5015259;28;20030;-76
2022/12/04 08:23:11;;;;;;;40.33;15.35;;;3.50;99.90;;;;;;5013539;28;20420;-77
2022/12/04 08:25:40;;;;;;;38.47;16.13;;;3.60;99.90;;;;;;5014777;28;20033;-78
2022/12/04 08:28:06;;;;;;;36.30;15.43;;;3.60;99.90;;;;;;5014700;28;20037;-75
2022/12/04 08:30:33;;;;;;;40.65;15.55;;;3.60;99.90;;;;;;5013529;28;20029;-77
2022/12/04 08:33:01;;;;;;;38.28;16.20;;;3.60;99.90;;;;;;5029737;28;20030;-77
2022/12/04 08:35:27;;;;;;;35.22;15.13;;;3.60;99.90;;;;;;5014978;28;20025;-76
2022/12/04 08:37:55;;;;;;;39.00;16.02;;;3.50;99.90;;;;;;5014700;28;20040;-77
2022/12/04 08:40:22;;;;;;;36.05;14.85;;;3.50;99.90;;;;;;5014792;28;20061;-77
2022/12/04 08:42:47;;;;;;;36.92;16.35;;;3.50;99.90;;;;;;5014712;28;20033;-74
2022/12/04 08:45:13;;;;;;;37.35;14.57;;;3.60;99.90;;;;;;5014170;28;20038;-79
2022/12/04 08:47:39;;;;;;;41.58;17.08;;;3.60;99.90;;;;;;5013396;28;20026;-77
2022/12/04 08:50:05;;;;;;;33.03;15.77;;;3.60;99.90;;;;;;5014571;28;20026;-76
2022/12/04 08:52:35;;;;;;;39.92;16.27;;;3.50;99.90;;;;;;5013900;28;20030;-76
2022/12/04 08:55:01;;;;;;;42.13;15.65;;;3.60;99.90;;;;;;5014226;28;20607;-77
2022/12/04 08:57:26;;;;;;;36.00;16.00;;;3.70;99.90;;;;;;5029411;28;20121;-77
2022/12/04 08:59:54;;;;;;;36.88;14.73;;;3.70;99.90;;;;;;5014064;28;20033;-74
2022/12/04 09:02:20;;;;;;;34.30;15.55;;;3.80;99.90;;;;;;5012893;28;20026;-75
2022/12/04 09:04:46;;;;;;;33.28;15.93;;;3.80;99.90;;;;;;5014207;28;20111;-76
2022/12/04 09:07:11;;;;;;;34.17;15.93;;;3.80;99.90;;;;;;5014641;28;20040;-75
2022/12/04 09:09:37;;;;;;;35.97;14.65;;;3.80;99.90;;;;;;5014470;28;20030;-76
2022/12/04 09:12:03;;;;;;;48.85;19.38;;;3.80;99.90;;;;;;5014363;28;20026;-72
2022/12/04 09:14:28;;;;;;;34.85;15.20;;;3.70;99.90;;;;;;5013761;28;20121;-76
2022/12/04 09:16:54;;;;;;;37.80;15.20;;;3.70;99.90;;;;;;5014210;28;20484;-76
2022/12/04 09:19:20;;;;;;;30.75;13.52;;;3.70;99.90;;;;;;5013919;28;20041;-76
2022/12/04 09:21:46;;;;;;;32.33;13.85;;;3.70;99.90;;;;;;5014175;28;20022;-75
2022/12/04 09:24:12;;;;;;;34.38;13.90;;;3.70;99.90;;;;;;5013845;28;20030;-77
2022/12/04 09:26:40;;;;;;;35.53;14.85;;;3.70;99.90;;;;;;5014077;28;20172;-77
2022/12/04 09:29:09;;;;;;;37.97;14.45;;;3.70;99.90;;;;;;5013100;28;20028;-77
2022/12/04 09:31:37;;;;;;;31.60;15.00;;;3.60;99.90;;;;;;5013385;28;20454;-75
2022/12/04 09:34:03;;;;;;;28.17;13.00;;;3.70;99.90;;;;;;5013884;28;20528;-77
2022/12/04 09:36:29;;;;;;;32.60;14.63;;;3.80;99.90;;;;;;5012843;28;20073;-72
2022/12/04 09:38:54;;;;;;;31.50;13.95;;;3.80;99.90;;;;;;5013698;28;20026;-76
2022/12/04 09:41:25;;;;;;;33.50;14.52;;;3.90;99.90;;;;;;5012945;28;20491;-77
2022/12/04 09:44:01;;;;;;;33.40;14.00;;;3.90;99.90;;;;;;5029495;28;20050;-75
2022/12/04 09:46:33;;;;;;;34.40;14.90;;;3.80;99.90;;;;;;5012888;28;20017;-77
2022/12/04 09:49:05;;;;;;;29.33;13.68;;;3.90;99.90;;;;;;5013841;28;20129;-76
2022/12/04 09:51:33;;;;;;;37.15;14.80;;;3.90;99.90;;;;;;5012984;28;20499;-76
2022/12/04 09:54:09;;;;;;;33.22;15.23;;;4.00;99.90;;;;;;5013931;28;20037;-76
2022/12/04 09:56:35;;;;;;;31.38;14.90;;;4.00;99.90;;;;;;5013278;28;20055;-77
2022/12/04 09:59:23;;;;;;;34.58;14.90;;;4.00;99.90;;;;;;5013497;28;20065;-76
2022/12/04 10:02:11;;;;;;;30.70;14.38;;;3.90;99.90;;;;;;5013978;28;20033;-76
2022/12/04 10:04:39;;;;;;;32.15;13.07;;;4.00;99.90;;;;;;5016414;28;20033;-79
2022/12/04 10:07:11;;;;;;;31.27;13.63;;;4.00;99.90;;;;;;5017554;28;20033;-78
2022/12/04 10:10:06;;;;;;;27.65;14.20;;;4.00;99.90;;;;;;5017981;28;20033;-75
2022/12/04 10:13:00;;;;;;;30.48;13.68;;;4.00;99.90;;;;;;5017310;28;20038;-80
2022/12/04 10:15:36;;;;;;;31.08;13.63;;;4.00;99.90;;;;;;5017920;28;20387;-77
2022/12/04 10:18:17;;;;;;;26.58;13.48;;;4.00;99.90;;;;;;5017698;28;20026;-77
2022/12/04 10:20:49;;;;;;;33.53;14.38;;;4.00;99.90;;;;;;5018249;28;20392;-77
2022/12/04 10:23:46;;;;;;;34.33;14.50;;;4.00;99.90;;;;;;5034132;28;20021;-74
2022/12/04 10:26:16;;;;;;;33.20;14.90;;;4.00;99.90;;;;;;5018195;28;20022;-78
2022/12/04 10:29:12;;;;;;;26.75;13.27;;;4.00;99.90;;;;;;5017779;28;20351;-78
2022/12/04 10:31:39;;;;;;;31.58;14.02;;;4.00;99.90;;;;;;5016780;28;20125;-78
2022/12/04 10:34:26;;;;;;;33.28;14.13;;;4.00;99.90;;;;;;5015901;28;20034;-77
2022/12/04 10:36:54;;;;;;;26.63;13.00;;;4.00;99.90;;;;;;5017252;28;20018;-78
2022/12/04 10:39:34;;;;;;;29.08;14.25;;;4.00;99.90;;;;;;5017217;28;20032;-78
2022/12/04 10:42:17;;;;;;;28.85;13.60;;;4.00;99.90;;;;;;5016833;28;20030;-77
2022/12/04 10:44:42;;;;;;;;;;;4.00;99.90;;;;;;5033109;28;20442;-76
2022/12/04 10:47:14;;;;;;;31.13;13.32;;;4.10;99.90;;;;;;5015835;28;19906;-77
2022/12/04 10:49:41;;;;;;;30.70;13.13;;;4.10;99.90;;;;;;5016837;28;20095;-80
2022/12/04 10:52:10;;;;;;;33.63;13.77;;;4.10;99.90;;;;;;5017123;28;20021;-74
2022/12/04 10:54:47;;;;;;;31.20;13.45;;;4.10;99.90;;;;;;5017392;28;20076;-79
2022/12/04 10:57:13;;;;;;;28.52;12.68;;;4.10;99.90;;;;;;5017775;28;20438;-79
2022/12/04 10:59:48;;;;;;;26.40;12.95;;;4.10;99.90;;;;;;5016541;28;20032;-78
2022/12/04 11:02:24;;;;;;;25.17;12.90;;;4.10;99.90;;;;;;5032871;28;20025;-76
2022/12/04 11:05:00;;;;;;;34.08;14.00;;;4.20;99.90;;;;;;5016584;28;20022;-75
2022/12/04 11:07:35;;;;;;;31.52;14.00;;;4.30;99.90;;;;;;5021102;28;20181;-80
2022/12/04 11:10:05;;;;;;;27.05;13.02;;;4.30;99.90;;;;;;5015986;28;20034;-76
2022/12/04 11:12:31;;;;;;;182.48;64.78;;;4.40;99.90;;;;;;5015793;28;20033;-76
2022/12/04 11:15:07;;;;;;;33.88;14.48;;;4.40;99.90;;;;;;5015458;28;20463;-77
2022/12/04 11:17:33;;;;;;;29.25;13.05;;;4.50;99.90;;;;;;5016353;28;20030;-78
2022/12/04 11:20:05;;;;;;;26.63;12.90;;;4.50;99.90;;;;;;5015971;28;20103;-77
2022/12/04 11:22:36;;;;;;;31.10;14.35;;;4.60;99.90;;;;;;5016240;28;20022;-74
2022/12/04 11:25:05;;;;;;;25.92;12.90;;;4.60;99.90;;;;;;5015714;28;20032;-78
2022/12/04 11:27:33;;;;;;;30.73;13.52;;;4.50;99.90;;;;;;5015709;28;20084;-77
2022/12/04 11:30:25;;;;;;;25.25;13.32;;;4.50;99.90;;;;;;5015066;28;20033;-77
2022/12/04 11:32:52;;;;;;;27.20;12.95;;;4.50;99.90;;;;;;5015576;28;20049;-78
2022/12/04 11:35:26;;;;;;;36.90;16.73;;;4.50;99.90;;;;;;5015804;28;20030;-78
2022/12/04 11:38:00;;;;;;;36.92;17.35;;;4.50;99.90;;;;;;5015011;28;20085;-78
2022/12/04 11:40:26;;;;;;;41.67;18.25;;;4.50;99.90;;;;;;5015580;28;20117;-78
2022/12/04 11:43:11;;;;;;;52.10;21.73;;;4.60;99.90;;;;;;5015669;28;20029;-77
2022/12/04 11:45:37;;;;;;;55.95;22.80;;;4.60;99.90;;;;;;5015341;28;20317;-77
2022/12/04 11:48:13;;;;;;;48.55;21.10;;;4.50;99.90;;;;;;5015395;28;20034;-74
2022/12/04 11:50:55;;;;;;;45.72;20.80;;;4.50;99.90;;;;;;5015131;28;20029;-75
2022/12/04 11:53:45;;;;;;;33.75;14.70;;;4.60;99.90;;;;;;5015825;28;20030;-76
2022/12/04 11:56:35;;;;;;;28.80;13.50;;;4.50;99.90;;;;;;5031202;28;20030;-76
2022/12/04 11:59:07;;;;;;;26.33;12.15;;;4.50;99.90;;;;;;5030965;28;20058;-76
2022/12/04 12:01:48;;;;;;;30.75;13.13;;;4.50;99.90;;;;;;5015502;28;20037;-78
2022/12/04 12:04:17;;;;;;;26.27;12.30;;;4.50;99.90;;;;;;5015508;28;20022;-77
2022/12/04 12:07:20;;;;;;;30.70;13.50;;;4.50;99.90;;;;;;5015585;28;20037;-77
2022/12/04 12:09:46;;;;;;;24.02;12.20;;;4.50;99.90;;;;;;5015667;28;20030;-78
2022/12/04 12:12:24;;;;;;;31.45;13.77;;;4.60;99.90;;;;;;5016271;28;20040;-77
2022/12/04 12:15:04;;;;;;;30.65;11.93;;;4.60;99.90;;;;;;5014520;28;20095;-77
2022/12/04 12:17:45;;;;;;;29.90;12.48;;;4.60;99.90;;;;;;5015767;28;20040;-77
2022/12/04 12:20:31;;;;;;;25.42;12.05;;;4.60;99.90;;;;;;5015521;28;20026;-75
2022/12/04 12:23:26;;;;;;;27.52;13.07;;;4.60;99.90;;;;;;5014928;28;20026;-77
2022/12/04 12:26:23;;;;;;;24.30;11.80;;;4.70;99.90;;;;;;5014540;28;20364;-75
2022/12/04 12:29:19;;;;;;;35.97;13.88;;;4.70;99.90;;;;;;5015260;28;20418;-72
2022/12/04 12:32:00;;;;;;;30.85;12.52;;;4.70;99.90;;;;;;5014800;28;20030;-77
2022/12/04 12:34:39;;;;;;;29.67;12.80;;;4.70;99.90;;;;;;5013604;28;20045;-76
2022/12/04 12:37:15;;;;;;;26.83;12.55;;;4.70;99.90;;;;;;5014363;28;20030;-77
2022/12/04 12:40:06;;;;;;;27.35;13.18;;;4.70;99.90;;;;;;5015030;28;20105;-77
2022/12/04 12:42:37;;;;;;;25.15;12.00;;;4.70;99.90;;;;;;5013479;28;20021;-76
2022/12/04 12:45:15;;;;;;;28.38;12.95;;;4.70;99.90;;;;;;5015114;28;20014;-77
2022/12/04 12:47:49;;;;;;;29.02;12.30;;;4.70;99.90;;;;;;5014843;28;20376;-76
2022/12/04 12:50:18;;;;;;;30.95;12.02;;;4.70;99.90;;;;;;5014863;28;20033;-76
2022/12/04 12:53:03;;;;;;;24.88;12.32;;;4.70;99.90;;;;;;5014683;28;20101;-76
2022/12/04 12:55:41;;;;;;;24.00;11.60;;;4.70;99.90;;;;;;5013512;28;20036;-72
2022/12/04 12:58:17;;;;;;;39.72;15.73;;;4.60;99.90;;;;;;5013806;28;20065;-70
2022/12/04 13:00:59;;;;;;;26.05;13.23;;;4.60;99.90;;;;;;5014496;28;20036;-76
2022/12/04 13:03:49;;;;;;;26.77;12.50;;;4.70;99.90;;;;;;5014514;28;20033;-76
2022/12/04 13:06:27;;;;;;;31.33;13.50;;;4.70;99.90;;;;;;5013970;28;20045;-76
2022/12/04 13:09:02;;;;;;;25.23;11.82;;;4.60;99.90;;;;;;5014392;28;20479;-76
2022/12/04 13:11:29;;;;;;;27.88;12.93;;;4.70;99.90;;;;;;5030383;28;20026;-77
2022/12/04 13:13:58;;;;;;;26.95;11.32;;;4.80;99.90;;;;;;5014415;28;20022;-75